Aviston, Illinois
Current Conditions -  °F | °C
As of 6:58 AM on Friday 28 Nov 2014 (Local Time) from KBLV Reporting Station
Clear Clear  
Wind Chill: 16°   Ceiling: Unl
Heat Index: 24°   Visibility: 10mi
Dew Point: 24°   Wind: 8mph
Humidity: 98%   Direction: 140°SE
Pressure: 30.28"   Gusts: NA
Location:  38.61°N, 89.61°W
Report Text: KBLV 281258Z AUTO 14007KT 10SM CLR M04/M04 A3028 RMK AO2 SLP263 T10421045
Loading
Personal Weather Stations






























Interactive Weather Map New forecast layout! Learn more

10-Day Weather Forecast

Advertisements
Track Severe Weather on mobile